sensor_id;sensor_type;location;lat;lon;timestamp;pressure;altitude;pressure_sealevel;temperature;humidity
72038;BME280;59900;50.788;12.904;2023-04-07T00:02:08;97649.75;;;4.41;56.05
72038;BME280;59900;50.788;12.904;2023-04-07T00:04:33;97645.97;;;4.35;56.37
72038;BME280;59900;50.788;12.904;2023-04-07T00:06:58;97643.53;;;4.34;56.56
72038;BME280;59900;50.788;12.904;2023-04-07T00:09:24;97645.97;;;4.35;56.71
72038;BME280;59900;50.788;12.904;2023-04-07T00:11:49;97636.19;;;4.29;56.20
72038;BME280;59900;50.788;12.904;2023-04-07T00:14:16;97636.34;;;4.28;55.36
72038;BME280;59900;50.788;12.904;2023-04-07T00:16:41;97641.03;;;4.24;55.25
72038;BME280;59900;50.788;12.904;2023-04-07T00:19:06;97631.13;;;4.20;55.30
72038;BME280;59900;50.788;12.904;2023-04-07T00:21:31;97630.91;;;4.13;56.08
72038;BME280;59900;50.788;12.904;2023-04-07T00:23:57;97626.00;;;4.10;56.63
72038;BME280;59900;50.788;12.904;2023-04-07T00:26:23;97630.38;;;4.10;56.48
72038;BME280;59900;50.788;12.904;2023-04-07T00:28:51;97630.38;;;4.10;56.45
72038;BME280;59900;50.788;12.904;2023-04-07T00:31:16;97622.72;;;4.08;57.46
72038;BME280;59900;50.788;12.904;2023-04-07T00:33:41;97624.66;;;4.06;57.85
72038;BME280;59900;50.788;12.904;2023-04-07T00:36:07;97630.84;;;4.05;57.10
72038;BME280;59900;50.788;12.904;2023-04-07T00:38:32;97625.28;;;4.00;56.46
72038;BME280;59900;50.788;12.904;2023-04-07T00:40:58;97628.03;;;3.99;57.32
72038;BME280;59900;50.788;12.904;2023-04-07T00:43:23;97617.44;;;3.92;57.55
72038;BME280;59900;50.788;12.904;2023-04-07T00:45:49;97616.78;;;3.90;56.35
72038;BME280;59900;50.788;12.904;2023-04-07T00:48:15;97620.34;;;3.89;56.46
72038;BME280;59900;50.788;12.904;2023-04-07T00:50:40;97617.22;;;3.85;56.39
72038;BME280;59900;50.788;12.904;2023-04-07T00:53:05;97613.44;;;3.80;56.19
72038;BME280;59900;50.788;12.904;2023-04-07T00:55:31;97605.66;;;3.80;56.13
72038;BME280;59900;50.788;12.904;2023-04-07T00:57:56;97608.41;;;3.78;56.19
72038;BME280;59900;50.788;12.904;2023-04-07T01:00:21;97607.13;;;3.82;57.03
72038;BME280;59900;50.788;12.904;2023-04-07T01:02:54;97605.00;;;3.78;57.54
72038;BME280;59900;50.788;12.904;2023-04-07T01:05:53;97604.78;;;3.71;58.09
72038;BME280;59900;50.788;12.904;2023-04-07T01:08:23;97599.06;;;3.68;57.98
72038;BME280;59900;50.788;12.904;2023-04-07T01:11:07;97595.63;;;3.67;58.67
72038;BME280;59900;50.788;12.904;2023-04-07T01:13:50;97590.91;;;3.63;58.28
72038;BME280;59900;50.788;12.904;2023-04-07T01:16:23;97591.88;;;3.62;57.89
72038;BME280;59900;50.788;12.904;2023-04-07T01:18:51;97593.50;;;3.63;58.20
72038;BME280;59900;50.788;12.904;2023-04-07T01:21:18;97589.72;;;3.57;58.73
72038;BME280;59900;50.788;12.904;2023-04-07T01:23:48;97586.31;;;3.57;58.11
72038;BME280;59900;50.788;12.904;2023-04-07T01:26:20;97591.00;;;3.53;58.37
72038;BME280;59900;50.788;12.904;2023-04-07T01:29:21;97577.88;;;3.55;57.02
72038;BME280;59900;50.788;12.904;2023-04-07T01:31:49;97585.34;;;3.58;57.38
72038;BME280;59900;50.788;12.904;2023-04-07T01:34:16;97578.22;;;3.60;57.21
72038;BME280;59900;50.788;12.904;2023-04-07T01:36:42;97577.41;;;3.59;56.94
72038;BME280;59900;50.788;12.904;2023-04-07T01:39:10;97580.66;;;3.61;57.06
72038;BME280;59900;50.788;12.904;2023-04-07T01:41:37;97573.53;;;3.63;57.23
72038;BME280;59900;50.788;12.904;2023-04-07T01:44:05;97570.13;;;3.63;56.81
72038;BME280;59900;50.788;12.904;2023-04-07T01:46:32;97571.69;;;3.56;56.95
72038;BME280;59900;50.788;12.904;2023-04-07T01:48:58;97565.69;;;3.55;56.59
72038;BME280;59900;50.788;12.904;2023-04-07T01:51:23;97573.97;;;3.59;56.77
72038;BME280;59900;50.788;12.904;2023-04-07T01:53:51;97566.13;;;3.51;56.79
72038;BME280;59900;50.788;12.904;2023-04-07T01:56:17;97573.19;;;3.40;56.95
72038;BME280;59900;50.788;12.904;2023-04-07T01:58:42;97573.66;;;3.36;57.41
72038;BME280;59900;50.788;12.904;2023-04-07T02:01:08;97570.75;;;3.39;57.10
72038;BME280;59900;50.788;12.904;2023-04-07T02:06:03;97572.16;;;3.33;57.66
72038;BME280;59900;50.788;12.904;2023-04-07T02:08:31;97564.97;;;3.27;57.68
72038;BME280;59900;50.788;12.904;2023-04-07T02:10:58;97570.69;;;3.31;57.88
72038;BME280;59900;50.788;12.904;2023-04-07T02:13:25;97568.09;;;3.31;57.83
72038;BME280;59900;50.788;12.904;2023-04-07T02:15:53;97566.16;;;3.33;57.75
72038;BME280;59900;50.788;12.904;2023-04-07T02:18:20;97560.00;;;3.34;57.87
72038;BME280;59900;50.788;12.904;2023-04-07T02:20:47;97566.81;;;3.35;58.03
72038;BME280;59900;50.788;12.904;2023-04-07T02:23:14;97559.72;;;3.37;57.56
72038;BME280;59900;50.788;12.904;2023-04-07T02:25:40;97564.72;;;3.38;58.22
72038;BME280;59900;50.788;12.904;2023-04-07T02:28:05;97557.09;;;3.37;58.62
72038;BME280;59900;50.788;12.904;2023-04-07T02:30:31;97558.72;;;3.38;58.48
72038;BME280;59900;50.788;12.904;2023-04-07T02:32:57;97558.53;;;3.31;58.60
72038;BME280;59900;50.788;12.904;2023-04-07T02:35:22;97553.75;;;3.27;58.57
72038;BME280;59900;50.788;12.904;2023-04-07T02:37:48;97556.66;;;3.24;59.15
72038;BME280;59900;50.788;12.904;2023-04-07T02:40:14;97552.44;;;3.23;59.27
72038;BME280;59900;50.788;12.904;2023-04-07T02:42:39;97561.03;;;3.23;58.72
72038;BME280;59900;50.788;12.904;2023-04-07T02:45:06;97556.97;;;3.21;58.94
72038;BME280;59900;50.788;12.904;2023-04-07T02:47:32;97561.50;;;3.19;59.25
72038;BME280;59900;50.788;12.904;2023-04-07T02:49:57;97561.50;;;3.19;60.03
72038;BME280;59900;50.788;12.904;2023-04-07T02:52:23;97560.53;;;3.20;60.04
72038;BME280;59900;50.788;12.904;2023-04-07T02:54:48;97561.50;;;3.19;59.62
72038;BME280;59900;50.788;12.904;2023-04-07T02:57:13;97551.25;;;3.17;60.43
72038;BME280;59900;50.788;12.904;2023-04-07T02:59:39;97556.44;;;3.17;60.02
72038;BME280;59900;50.788;12.904;2023-04-07T03:02:04;97545.56;;;3.14;60.27
72038;BME280;59900;50.788;12.904;2023-04-07T03:04:30;97552.53;;;3.13;60.43
72038;BME280;59900;50.788;12.904;2023-04-07T03:06:55;97548.50;;;3.01;60.00
72038;BME280;59900;50.788;12.904;2023-04-07T03:09:21;97549.56;;;2.91;59.84
72038;BME280;59900;50.788;12.904;2023-04-07T03:11:47;97547.41;;;2.86;59.96
72038;BME280;59900;50.788;12.904;2023-04-07T03:14:12;97543.16;;;2.85;60.01
72038;BME280;59900;50.788;12.904;2023-04-07T03:16:37;97545.63;;;2.87;60.16
72038;BME280;59900;50.788;12.904;2023-04-07T03:19:02;97553.13;;;2.90;60.12
72038;BME280;59900;50.788;12.904;2023-04-07T03:21:27;97545.56;;;2.96;60.06
72038;BME280;59900;50.788;12.904;2023-04-07T03:23:53;97540.06;;;2.99;59.87
72038;BME280;59900;50.788;12.904;2023-04-07T03:26:19;97537.97;;;3.03;60.03
72038;BME280;59900;50.788;12.904;2023-04-07T03:28:45;97540.66;;;2.93;60.11
72038;BME280;59900;50.788;12.904;2023-04-07T03:31:10;97534.13;;;2.89;60.06
72038;BME280;59900;50.788;12.904;2023-04-07T03:33:36;97538.19;;;2.92;60.36
72038;BME280;59900;50.788;12.904;2023-04-07T03:36:01;97539.84;;;2.93;60.52
72038;BME280;59900;50.788;12.904;2023-04-07T03:38:26;97534.66;;;2.93;60.15
72038;BME280;59900;50.788;12.904;2023-04-07T03:40:51;97538.38;;;2.90;60.75
72038;BME280;59900;50.788;12.904;2023-04-07T03:43:17;97532.47;;;2.88;60.42
72038;BME280;59900;50.788;12.904;2023-04-07T03:45:42;97545.91;;;2.83;60.64
72038;BME280;59900;50.788;12.904;2023-04-07T03:48:07;97542.44;;;2.75;60.28
72038;BME280;59900;50.788;12.904;2023-04-07T03:50:37;97535.97;;;2.79;60.41
72038;BME280;59900;50.788;12.904;2023-04-07T03:53:03;97537.06;;;2.76;60.68
72038;BME280;59900;50.788;12.904;2023-04-07T03:55:28;97536.25;;;2.76;60.37
72038;BME280;59900;50.788;12.904;2023-04-07T03:57:54;97541.44;;;2.76;60.64
72038;BME280;59900;50.788;12.904;2023-04-07T04:00:19;97535.00;;;2.80;61.04
72038;BME280;59900;50.788;12.904;2023-04-07T04:02:45;97533.38;;;2.79;61.03
72038;BME280;59900;50.788;12.904;2023-04-07T04:05:10;97533.38;;;2.79;60.82
72038;BME280;59900;50.788;12.904;2023-04-07T04:07:36;97530.41;;;2.74;60.85
72038;BME280;59900;50.788;12.904;2023-04-07T04:10:01;97539.16;;;2.73;61.02
72038;BME280;59900;50.788;12.904;2023-04-07T04:12:27;97532.47;;;2.70;61.44
72038;BME280;59900;50.788;12.904;2023-04-07T04:14:52;97541.66;;;2.65;61.75
72038;BME280;59900;50.788;12.904;2023-04-07T04:17:18;97533.66;;;2.58;61.82
72038;BME280;59900;50.788;12.904;2023-04-07T04:19:43;97533.97;;;2.55;62.03
72038;BME280;59900;50.788;12.904;2023-04-07T04:22:08;97534.25;;;2.52;62.57
72038;BME280;59900;50.788;12.904;2023-04-07T04:24:33;97534.66;;;2.48;62.81
72038;BME280;59900;50.788;12.904;2023-04-07T04:26:59;97541.78;;;2.46;62.82
72038;BME280;59900;50.788;12.904;2023-04-07T04:29:25;97534.28;;;2.43;62.98
72038;BME280;59900;50.788;12.904;2023-04-07T04:31:51;97544.28;;;2.38;62.74
72038;BME280;59900;50.788;12.904;2023-04-07T04:34:16;97544.06;;;2.31;63.73
72038;BME280;59900;50.788;12.904;2023-04-07T04:36:41;97529.31;;;2.32;63.32
72038;BME280;59900;50.788;12.904;2023-04-07T04:39:06;97535.91;;;2.26;63.36
72038;BME280;59900;50.788;12.904;2023-04-07T04:41:32;97530.31;;;2.21;63.47
72038;BME280;59900;50.788;12.904;2023-04-07T04:43:57;97525.94;;;2.21;63.65
72038;BME280;59900;50.788;12.904;2023-04-07T04:46:23;97535.78;;;2.18;63.61
72038;BME280;59900;50.788;12.904;2023-04-07T04:48:49;97532.66;;;2.14;63.78
72038;BME280;59900;50.788;12.904;2023-04-07T04:51:15;97537.44;;;2.09;64.11
72038;BME280;59900;50.788;12.904;2023-04-07T04:53:40;97541.16;;;2.07;64.28
72038;BME280;59900;50.788;12.904;2023-04-07T04:56:07;97540.50;;;2.05;64.67
72038;BME280;59900;50.788;12.904;2023-04-07T04:58:34;97543.22;;;2.03;64.64
72038;BME280;59900;50.788;12.904;2023-04-07T05:00:59;97546.09;;;2.00;64.48
72038;BME280;59900;50.788;12.904;2023-04-07T05:03:26;97543.78;;;1.97;64.93
72038;BME280;59900;50.788;12.904;2023-04-07T05:05:52;97546.38;;;1.97;65.25
72038;BME280;59900;50.788;12.904;2023-04-07T05:08:17;97553.63;;;1.94;65.36
72038;BME280;59900;50.788;12.904;2023-04-07T05:10:42;97551.03;;;1.94;65.51
72038;BME280;59900;50.788;12.904;2023-04-07T05:13:07;97545.69;;;1.95;64.90
72038;BME280;59900;50.788;12.904;2023-04-07T05:15:33;97552.25;;;1.99;65.42
72038;BME280;59900;50.788;12.904;2023-04-07T05:17:58;97555.78;;;1.98;65.28
72038;BME280;59900;50.788;12.904;2023-04-07T05:20:23;97550.72;;;1.97;65.60
72038;BME280;59900;50.788;12.904;2023-04-07T05:22:49;97545.41;;;1.98;65.39
72038;BME280;59900;50.788;12.904;2023-04-07T05:25:14;97544.59;;;1.98;65.70
72038;BME280;59900;50.788;12.904;2023-04-07T05:27:39;97543.78;;;1.97;65.41
72038;BME280;59900;50.788;12.904;2023-04-07T05:30:05;97553.84;;;2.00;65.16
72038;BME280;59900;50.788;12.904;2023-04-07T05:32:31;97548.69;;;2.00;64.85
72038;BME280;59900;50.788;12.904;2023-04-07T05:34:56;97544.75;;;1.96;65.34
72038;BME280;59900;50.788;12.904;2023-04-07T05:37:21;97548.00;;;1.98;66.08
72038;BME280;59900;50.788;12.904;2023-04-07T05:39:46;97546.09;;;2.00;65.45
72038;BME280;59900;50.788;12.904;2023-04-07T05:42:12;97541.72;;;2.01;65.96
72038;BME280;59900;50.788;12.904;2023-04-07T05:44:37;97543.75;;;2.07;65.34
72038;BME280;59900;50.788;12.904;2023-04-07T05:47:02;97545.50;;;2.06;65.59
72038;BME280;59900;50.788;12.904;2023-04-07T05:49:32;97549.47;;;2.10;65.58
72038;BME280;59900;50.788;12.904;2023-04-07T05:51:58;97548.19;;;2.14;65.61
72038;BME280;59900;50.788;12.904;2023-04-07T05:54:23;97548.75;;;2.18;65.80
72038;BME280;59900;50.788;12.904;2023-04-07T05:56:48;97544.75;;;2.23;66.00
72038;BME280;59900;50.788;12.904;2023-04-07T05:59:13;97545.16;;;2.29;65.87
72038;BME280;59900;50.788;12.904;2023-04-07T06:01:38;97546.06;;;2.37;65.97
72038;BME280;59900;50.788;12.904;2023-04-07T06:04:04;97550.53;;;2.45;65.60
72038;BME280;59900;50.788;12.904;2023-04-07T06:06:29;97555.28;;;2.49;65.22
72038;BME280;59900;50.788;12.904;2023-04-07T06:08:55;97562.63;;;2.54;65.11
72038;BME280;59900;50.788;12.904;2023-04-07T06:11:20;97551.00;;;2.58;65.05
72038;BME280;59900;50.788;12.904;2023-04-07T06:13:46;97556.84;;;2.60;65.38
72038;BME280;59900;50.788;12.904;2023-04-07T06:16:11;97555.69;;;2.72;64.63
72038;BME280;59900;50.788;12.904;2023-04-07T06:18:36;97540.06;;;2.81;64.19
72038;BME280;59900;50.788;12.904;2023-04-07T06:21:02;97537.25;;;2.93;63.69
72038;BME280;59900;50.788;12.904;2023-04-07T06:23:27;97540.72;;;3.01;63.36
72038;BME280;59900;50.788;12.904;2023-04-07T06:25:52;97543.25;;;3.11;63.11
72038;BME280;59900;50.788;12.904;2023-04-07T06:28:18;97539.78;;;3.20;62.84
72038;BME280;59900;50.788;12.904;2023-04-07T06:30:43;97538.19;;;3.27;63.13
72038;BME280;59900;50.788;12.904;2023-04-07T06:33:09;97534.38;;;3.39;63.10
72038;BME280;59900;50.788;12.904;2023-04-07T06:35:34;97538.69;;;3.48;62.80
72038;BME280;59900;50.788;12.904;2023-04-07T06:38:00;97542.16;;;3.57;62.69
72038;BME280;59900;50.788;12.904;2023-04-07T06:40:26;97539.16;;;3.69;62.68
72038;BME280;59900;50.788;12.904;2023-04-07T06:42:51;97547.00;;;3.77;62.28
72038;BME280;59900;50.788;12.904;2023-04-07T06:45:18;97536.00;;;3.83;62.00
72038;BME280;59900;50.788;12.904;2023-04-07T06:47:43;97544.94;;;3.89;62.05
72038;BME280;59900;50.788;12.904;2023-04-07T06:50:09;97545.16;;;3.95;61.94
72038;BME280;59900;50.788;12.904;2023-04-07T06:52:34;97547.28;;;4.00;61.66
72038;BME280;59900;50.788;12.904;2023-04-07T06:55:00;97544.53;;;4.02;61.50
72038;BME280;59900;50.788;12.904;2023-04-07T06:57:25;97541.13;;;4.01;61.15
72038;BME280;59900;50.788;12.904;2023-04-07T06:59:51;97543.84;;;4.00;60.93
72038;BME280;59900;50.788;12.904;2023-04-07T07:02:16;97546.16;;;4.03;61.11
72038;BME280;59900;50.788;12.904;2023-04-07T07:04:42;97539.38;;;4.10;60.55
72038;BME280;59900;50.788;12.904;2023-04-07T07:07:07;97540.19;;;4.10;59.99
72038;BME280;59900;50.788;12.904;2023-04-07T07:09:32;97548.81;;;4.11;60.46
72038;BME280;59900;50.788;12.904;2023-04-07T07:11:57;97547.50;;;4.15;60.48
72038;BME280;59900;50.788;12.904;2023-04-07T07:14:23;97547.06;;;4.19;60.06
72038;BME280;59900;50.788;12.904;2023-04-07T07:16:48;97553.09;;;4.20;59.83
72038;BME280;59900;50.788;12.904;2023-04-07T07:19:13;97555.22;;;4.24;60.04
72038;BME280;59900;50.788;12.904;2023-04-07T07:21:39;97552.13;;;4.29;59.82
72038;BME280;59900;50.788;12.904;2023-04-07T07:24:04;97566.97;;;4.36;60.04
72038;BME280;59900;50.788;12.904;2023-04-07T07:26:29;97556.59;;;4.44;60.70
72038;BME280;59900;50.788;12.904;2023-04-07T07:28:55;97558.25;;;4.53;60.11
72038;BME280;59900;50.788;12.904;2023-04-07T07:31:20;97558.94;;;4.64;61.11
72038;BME280;59900;50.788;12.904;2023-04-07T07:33:45;97564.16;;;4.72;60.21
72038;BME280;59900;50.788;12.904;2023-04-07T07:36:12;97561.44;;;4.81;59.96
72038;BME280;59900;50.788;12.904;2023-04-07T07:38:38;97557.22;;;4.88;59.89
72038;BME280;59900;50.788;12.904;2023-04-07T07:41:05;97562.91;;;4.92;59.76
72038;BME280;59900;50.788;12.904;2023-04-07T07:43:30;97568.13;;;5.00;59.74
72038;BME280;59900;50.788;12.904;2023-04-07T07:45:56;97568.78;;;5.02;59.31
72038;BME280;59900;50.788;12.904;2023-04-07T07:48:21;97575.31;;;5.06;59.49
72038;BME280;59900;50.788;12.904;2023-04-07T07:50:46;97578.72;;;5.15;59.39
72038;BME280;59900;50.788;12.904;2023-04-07T07:53:13;97566.38;;;5.25;58.89
72038;BME280;59900;50.788;12.904;2023-04-07T07:55:38;97570.13;;;5.30;57.67
72038;BME280;59900;50.788;12.904;2023-04-07T07:58:04;97573.69;;;5.37;57.77
72038;BME280;59900;50.788;12.904;2023-04-07T08:00:29;97576.97;;;5.47;57.92
72038;BME280;59900;50.788;12.904;2023-04-07T08:02:54;97568.31;;;5.55;57.20
72038;BME280;59900;50.788;12.904;2023-04-07T08:05:20;97571.59;;;5.65;56.79
72038;BME280;59900;50.788;12.904;2023-04-07T08:07:45;97576.31;;;5.78;56.75
72038;BME280;59900;50.788;12.904;2023-04-07T08:10:11;97584.97;;;5.94;56.26
72038;BME280;59900;50.788;12.904;2023-04-07T08:12:36;97587.88;;;6.07;55.86
72038;BME280;59900;50.788;12.904;2023-04-07T08:15:02;97581.97;;;6.22;54.78
72038;BME280;59900;50.788;12.904;2023-04-07T08:17:27;97582.09;;;6.36;54.35
72038;BME280;59900;50.788;12.904;2023-04-07T08:19:53;97577.31;;;6.48;54.00
72038;BME280;59900;50.788;12.904;2023-04-07T08:22:18;97583.63;;;6.61;52.56
72038;BME280;59900;50.788;12.904;2023-04-07T08:24:46;97583.72;;;6.76;52.21
72038;BME280;59900;50.788;12.904;2023-04-07T08:27:12;97585.59;;;6.90;51.75
72038;BME280;59900;50.788;12.904;2023-04-07T08:29:37;97588.47;;;7.03;51.43
72038;BME280;59900;50.788;12.904;2023-04-07T08:32:03;97582.69;;;7.16;50.11
72038;BME280;59900;50.788;12.904;2023-04-07T08:34:28;97581.28;;;7.28;48.48
72038;BME280;59900;50.788;12.904;2023-04-07T08:36:53;97580.53;;;7.42;48.59
72038;BME280;59900;50.788;12.904;2023-04-07T08:39:18;97582.91;;;7.52;46.80
72038;BME280;59900;50.788;12.904;2023-04-07T08:41:45;97588.09;;;7.60;47.12
72038;BME280;59900;50.788;12.904;2023-04-07T08:44:11;97580.97;;;7.68;46.18
72038;BME280;59900;50.788;12.904;2023-04-07T08:46:38;97577.31;;;7.77;46.43
72038;BME280;59900;50.788;12.904;2023-04-07T08:49:08;97572.28;;;7.90;46.75
72038;BME280;59900;50.788;12.904;2023-04-07T08:51:36;97570.84;;;8.03;46.17
72038;BME280;59900;50.788;12.904;2023-04-07T08:54:07;97569.78;;;8.12;45.11
72038;BME280;59900;50.788;12.904;2023-04-07T08:56:33;97571.13;;;8.22;47.07
72038;BME280;59900;50.788;12.904;2023-04-07T08:59:00;97573.50;;;8.32;46.43
72038;BME280;59900;50.788;12.904;2023-04-07T09:01:26;97585.16;;;8.44;46.00
72038;BME280;59900;50.788;12.904;2023-04-07T09:03:52;97580.28;;;8.41;44.68
72038;BME280;59900;50.788;12.904;2023-04-07T09:06:18;97580.38;;;8.48;44.23
72038;BME280;59900;50.788;12.904;2023-04-07T09:08:43;97578.13;;;8.59;44.92
72038;BME280;59900;50.788;12.904;2023-04-07T09:11:08;97584.06;;;8.68;44.54
72038;BME280;59900;50.788;12.904;2023-04-07T09:13:33;97577.28;;;8.73;44.12
72038;BME280;59900;50.788;12.904;2023-04-07T09:16:00;97586.53;;;8.90;44.45
72038;BME280;59900;50.788;12.904;2023-04-07T09:18:27;97584.00;;;8.97;44.60
72038;BME280;59900;50.788;12.904;2023-04-07T09:20:59;97588.31;;;9.05;43.67
72038;BME280;59900;50.788;12.904;2023-04-07T09:23:29;97584.78;;;9.12;43.63
72038;BME280;59900;50.788;12.904;2023-04-07T09:25:55;97580.00;;;9.16;43.46
72038;BME280;59900;50.788;12.904;2023-04-07T09:28:23;97588.94;;;9.21;43.39
72038;BME280;59900;50.788;12.904;2023-04-07T09:30:52;97588.66;;;9.37;43.54
72038;BME280;59900;50.788;12.904;2023-04-07T09:33:26;97575.06;;;9.27;41.78
72038;BME280;59900;50.788;12.904;2023-04-07T09:35:52;97574.38;;;9.19;42.11
72038;BME280;59900;50.788;12.904;2023-04-07T09:38:17;97574.88;;;9.29;42.81
72038;BME280;59900;50.788;12.904;2023-04-07T09:40:42;97567.91;;;9.36;42.08
72038;BME280;59900;50.788;12.904;2023-04-07T09:43:14;97574.25;;;9.48;42.41
72038;BME280;59900;50.788;12.904;2023-04-07T09:45:40;97567.63;;;9.52;41.95
72038;BME280;59900;50.788;12.904;2023-04-07T09:48:06;97565.75;;;9.67;40.65
72038;BME280;59900;50.788;12.904;2023-04-07T09:50:35;97555.47;;;9.72;40.92
72038;BME280;59900;50.788;12.904;2023-04-07T09:53:01;97561.03;;;9.84;40.58
72038;BME280;59900;50.788;12.904;2023-04-07T09:55:27;97558.28;;;9.92;40.47
72038;BME280;59900;50.788;12.904;2023-04-07T09:57:54;97562.50;;;9.93;39.20
72038;BME280;59900;50.788;12.904;2023-04-07T10:00:20;97556.25;;;9.94;39.01
72038;BME280;59900;50.788;12.904;2023-04-07T10:02:45;97553.03;;;9.92;38.75
72038;BME280;59900;50.788;12.904;2023-04-07T10:05:12;97560.31;;;9.96;38.95
72038;BME280;59900;50.788;12.904;2023-04-07T10:07:37;97560.53;;;10.01;38.14
72038;BME280;59900;50.788;12.904;2023-04-07T10:10:03;97557.25;;;10.14;38.98
72038;BME280;59900;50.788;12.904;2023-04-07T10:12:30;97554.88;;;10.26;37.94
72038;BME280;59900;50.788;12.904;2023-04-07T10:14:57;97549.03;;;10.24;37.96
72038;BME280;59900;50.788;12.904;2023-04-07T10:17:23;97552.47;;;10.24;37.69
72038;BME280;59900;50.788;12.904;2023-04-07T10:19:49;97550.66;;;10.31;38.68
72038;BME280;59900;50.788;12.904;2023-04-07T10:22:15;97553.72;;;10.35;37.64
72038;BME280;59900;50.788;12.904;2023-04-07T10:24:55;97543.13;;;10.22;38.25
72038;BME280;59900;50.788;12.904;2023-04-07T10:27:50;97543.44;;;10.40;38.80
72038;BME280;59900;50.788;12.904;2023-04-07T10:30:28;97542.06;;;10.44;37.79
72038;BME280;59900;50.788;12.904;2023-04-07T10:32:54;97544.69;;;10.44;37.76
72038;BME280;59900;50.788;12.904;2023-04-07T10:35:20;97538.22;;;10.46;37.60
72038;BME280;59900;50.788;12.904;2023-04-07T10:38:21;97547.13;;;10.52;38.52
72038;BME280;59900;50.788;12.904;2023-04-07T10:40:46;97543.06;;;10.43;37.20
72038;BME280;59900;50.788;12.904;2023-04-07T10:43:12;97537.63;;;10.44;37.65
72038;BME280;59900;50.788;12.904;2023-04-07T10:48:19;97542.84;;;10.38;37.89
72038;BME280;59900;50.788;12.904;2023-04-07T10:50:45;97547.53;;;10.49;37.78
72038;BME280;59900;50.788;12.904;2023-04-07T10:53:30;97543.69;;;10.51;37.41
72038;BME280;59900;50.788;12.904;2023-04-07T10:55:56;97545.81;;;10.69;37.22
72038;BME280;59900;50.788;12.904;2023-04-07T10:58:26;97544.59;;;10.72;35.83
72038;BME280;59900;50.788;12.904;2023-04-07T11:03:37;97557.81;;;10.44;36.78
72038;BME280;59900;50.788;12.904;2023-04-07T11:06:08;97551.88;;;10.29;37.18
72038;BME280;59900;50.788;12.904;2023-04-07T11:08:41;97545.97;;;10.20;37.59
72038;BME280;59900;50.788;12.904;2023-04-07T11:11:07;97546.28;;;10.38;39.27
72038;BME280;59900;50.788;12.904;2023-04-07T11:13:44;97541.31;;;10.56;37.84
72038;BME280;59900;50.788;12.904;2023-04-07T11:16:16;97542.97;;;10.64;37.61
72038;BME280;59900;50.788;12.904;2023-04-07T11:18:43;97540.38;;;10.71;37.01
72038;BME280;59900;50.788;12.904;2023-04-07T11:21:08;97527.88;;;10.86;37.30
72038;BME280;59900;50.788;12.904;2023-04-07T11:23:41;97529.31;;;10.88;36.70
72038;BME280;59900;50.788;12.904;2023-04-07T11:26:08;97526.69;;;10.95;36.80
72038;BME280;59900;50.788;12.904;2023-04-07T11:28:43;97544.06;;;10.89;36.21
72038;BME280;59900;50.788;12.904;2023-04-07T11:31:10;97543.66;;;10.86;36.26
72038;BME280;59900;50.788;12.904;2023-04-07T11:33:35;97542.47;;;10.95;36.60
72038;BME280;59900;50.788;12.904;2023-04-07T11:36:03;97537.00;;;10.96;36.48
72038;BME280;59900;50.788;12.904;2023-04-07T11:38:34;97537.25;;;11.14;36.45
72038;BME280;59900;50.788;12.904;2023-04-07T11:41:12;97547.00;;;11.27;36.24
72038;BME280;59900;50.788;12.904;2023-04-07T11:43:37;97546.41;;;11.51;36.78
72038;BME280;59900;50.788;12.904;2023-04-07T11:46:14;97537.53;;;11.59;35.51
72038;BME280;59900;50.788;12.904;2023-04-07T11:48:41;97543.19;;;11.62;35.68
72038;BME280;59900;50.788;12.904;2023-04-07T11:51:23;97542.97;;;11.64;34.99
72038;BME280;59900;50.788;12.904;2023-04-07T11:53:55;97535.91;;;11.77;35.16
72038;BME280;59900;50.788;12.904;2023-04-07T11:56:20;97546.63;;;11.56;34.83
72038;BME280;59900;50.788;12.904;2023-04-07T11:58:47;97548.41;;;11.36;35.39
72038;BME280;59900;50.788;12.904;2023-04-07T12:01:13;97547.44;;;11.44;35.56
72038;BME280;59900;50.788;12.904;2023-04-07T12:03:57;97542.16;;;11.24;36.09
72038;BME280;59900;50.788;12.904;2023-04-07T12:06:30;97545.78;;;11.30;36.71
72038;BME280;59900;50.788;12.904;2023-04-07T12:08:59;97539.50;;;11.37;36.47
72038;BME280;59900;50.788;12.904;2023-04-07T12:11:25;97540.31;;;11.31;36.25
72038;BME280;59900;50.788;12.904;2023-04-07T12:13:50;97542.34;;;11.36;36.45
72038;BME280;59900;50.788;12.904;2023-04-07T12:16:16;97547.81;;;11.34;35.55
72038;BME280;59900;50.788;12.904;2023-04-07T12:18:42;97548.25;;;11.44;35.33
72038;BME280;59900;50.788;12.904;2023-04-07T12:21:07;97543.78;;;11.45;34.89
72038;BME280;59900;50.788;12.904;2023-04-07T12:23:33;97538.72;;;11.50;35.61
72038;BME280;59900;50.788;12.904;2023-04-07T12:25:58;97545.81;;;11.56;34.31
72038;BME280;59900;50.788;12.904;2023-04-07T12:28:23;97536.91;;;11.63;34.45
72038;BME280;59900;50.788;12.904;2023-04-07T12:30:48;97536.09;;;11.63;34.46
72038;BME280;59900;50.788;12.904;2023-04-07T12:33:14;97535.69;;;11.66;36.15
72038;BME280;59900;50.788;12.904;2023-04-07T12:35:39;97539.75;;;11.62;36.91
72038;BME280;59900;50.788;12.904;2023-04-07T12:38:05;97542.38;;;11.62;37.76
72038;BME280;59900;50.788;12.904;2023-04-07T12:40:30;97537.91;;;11.69;38.00
72038;BME280;59900;50.788;12.904;2023-04-07T12:42:56;97532.28;;;11.72;38.09
72038;BME280;59900;50.788;12.904;2023-04-07T12:45:23;97538.38;;;11.79;38.06
72038;BME280;59900;50.788;12.904;2023-04-07T12:47:48;97536.13;;;11.83;38.20
72038;BME280;59900;50.788;12.904;2023-04-07T12:50:13;97539.34;;;11.98;37.82
72038;BME280;59900;50.788;12.904;2023-04-07T12:52:38;97541.19;;;11.97;37.67
72038;BME280;59900;50.788;12.904;2023-04-07T12:55:05;97535.47;;;12.07;37.61
72038;BME280;59900;50.788;12.904;2023-04-07T12:57:30;97542.00;;;11.85;37.52
72038;BME280;59900;50.788;12.904;2023-04-07T12:59:56;97534.09;;;11.71;37.70
72038;BME280;59900;50.788;12.904;2023-04-07T13:02:22;97534.50;;;11.75;37.50
72038;BME280;59900;50.788;12.904;2023-04-07T13:04:47;97539.16;;;11.99;37.71